createdAt,value
2024-02-19T00:00:59.882Z,10.20
2024-02-19T00:03:28.890Z,10.20
2024-02-19T00:05:57.153Z,10.20
2024-02-19T00:08:25.351Z,10.20
2024-02-19T00:10:53.458Z,10.20
2024-02-19T00:13:21.582Z,10.20
2024-02-19T00:15:51.579Z,10.20
2024-02-19T00:18:19.816Z,10.30
2024-02-19T00:20:47.978Z,10.30
2024-02-19T00:23:16.073Z,10.30
2024-02-19T00:25:44.168Z,10.30
2024-02-19T00:28:12.474Z,10.30
2024-02-19T00:30:40.792Z,10.20
2024-02-19T00:33:10.415Z,10.20
2024-02-19T00:35:38.547Z,10.20
2024-02-19T00:38:06.813Z,10.20
2024-02-19T00:40:35.434Z,10.20
2024-02-19T00:43:03.632Z,10.20
2024-02-19T00:45:31.732Z,10.20
2024-02-19T00:47:59.868Z,10.20
2024-02-19T00:50:29.349Z,10.20
2024-02-19T00:52:57.492Z,10.20
2024-02-19T00:55:25.595Z,10.20
2024-02-19T00:57:53.686Z,10.30
2024-02-19T01:00:22.144Z,10.30
2024-02-19T01:02:50.455Z,10.30
2024-02-19T01:05:18.546Z,10.20
2024-02-19T01:07:48.102Z,10.20
2024-02-19T01:10:16.354Z,10.20
2024-02-19T01:12:44.580Z,10.20
2024-02-19T01:15:12.870Z,10.20
2024-02-19T01:17:40.973Z,10.20
2024-02-19T01:20:10.746Z,10.20
2024-02-19T01:22:40.006Z,10.20
2024-02-19T01:25:11.274Z,10.20
2024-02-19T01:27:39.485Z,10.20
2024-02-19T01:30:08.876Z,10.20
2024-02-19T01:32:39.128Z,10.20
2024-02-19T01:35:09.516Z,10.20
2024-02-19T01:37:37.779Z,10.20
2024-02-19T01:40:09.267Z,10.20
2024-02-19T01:42:38.814Z,10.20
2024-02-19T01:45:09.691Z,10.20
2024-02-19T01:47:38.105Z,10.20
2024-02-19T01:50:06.949Z,10.10
2024-02-19T01:52:35.194Z,10.10
2024-02-19T01:55:03.444Z,10.10
2024-02-19T01:57:31.759Z,10.00
2024-02-19T02:00:01.281Z,10.00
2024-02-19T02:02:29.372Z,10.00
2024-02-19T02:04:57.569Z,9.90
2024-02-19T02:07:26.536Z,9.90
2024-02-19T02:09:56.397Z,9.90
2024-02-19T02:12:24.726Z,9.90
2024-02-19T02:14:52.852Z,9.80
2024-02-19T02:17:22.323Z,9.80
2024-02-19T02:19:50.616Z,9.80
2024-02-19T02:22:19.022Z,9.80
2024-02-19T02:24:47.162Z,9.70
2024-02-19T02:27:17.586Z,9.70
2024-02-19T02:29:45.709Z,9.70
2024-02-19T02:32:13.797Z,9.70
2024-02-19T02:34:41.915Z,9.70
2024-02-19T02:37:10.105Z,9.70
2024-02-19T02:39:38.193Z,9.70
2024-02-19T02:42:06.664Z,9.70
2024-02-19T02:44:36.333Z,9.70
2024-02-19T02:47:04.542Z,9.70
2024-02-19T02:49:32.723Z,9.70
2024-02-19T02:52:00.862Z,9.70
2024-02-19T02:54:28.970Z,9.70
2024-02-19T02:56:57.053Z,9.70
2024-02-19T02:59:25.159Z,9.70
2024-02-19T03:01:54.689Z,9.60
2024-02-19T03:04:23.086Z,9.60
2024-02-19T03:06:51.352Z,9.70
2024-02-19T03:09:19.593Z,9.70
2024-02-19T03:11:47.688Z,9.70
2024-02-19T03:14:17.829Z,9.70
2024-02-19T03:16:46.018Z,9.70
2024-02-19T03:19:16.009Z,9.70
2024-02-19T03:21:44.213Z,9.80
2024-02-19T03:24:12.337Z,9.80
2024-02-19T03:26:41.754Z,9.80
2024-02-19T03:29:15.045Z,9.80
2024-02-19T03:31:45.030Z,9.90
2024-02-19T03:34:13.339Z,9.90
2024-02-19T03:36:46.356Z,9.90
2024-02-19T03:39:14.713Z,9.90
2024-02-19T03:41:42.823Z,9.90
2024-02-19T03:44:10.891Z,9.90
2024-02-19T03:46:39.097Z,9.90
2024-02-19T03:49:07.288Z,9.90
2024-02-19T03:51:35.616Z,9.90
2024-02-19T03:54:05.255Z,9.90
2024-02-19T03:56:33.534Z,9.90
2024-02-19T03:59:01.622Z,9.90
2024-02-19T04:01:29.842Z,10.00
2024-02-19T04:03:58.182Z,10.00
2024-02-19T04:06:26.381Z,10.00
2024-02-19T04:08:54.483Z,10.00
2024-02-19T04:11:24.146Z,9.90
2024-02-19T04:13:52.264Z,9.90
2024-02-19T04:16:20.414Z,9.90
2024-02-19T04:18:48.699Z,9.90
2024-02-19T04:21:16.860Z,9.90
2024-02-19T04:23:44.989Z,9.90
2024-02-19T04:26:13.071Z,9.90
2024-02-19T04:28:42.502Z,9.90
2024-02-19T04:31:10.633Z,9.90
2024-02-19T04:33:38.837Z,9.90
2024-02-19T04:36:09.389Z,9.80
2024-02-19T04:38:37.510Z,9.80
2024-02-19T04:41:05.843Z,9.70
2024-02-19T04:43:33.927Z,9.70
2024-02-19T04:46:06.344Z,9.70
2024-02-19T04:48:36.789Z,9.70
2024-02-19T04:51:06.513Z,9.70
2024-02-19T04:53:35.421Z,9.60
2024-02-19T04:56:03.550Z,9.70
2024-02-19T04:58:31.683Z,9.60
2024-02-19T05:00:59.837Z,9.60
2024-02-19T05:03:29.321Z,9.60
2024-02-19T05:05:57.457Z,9.60
2024-02-19T05:08:25.599Z,9.60
2024-02-19T05:10:54.003Z,9.60
2024-02-19T05:13:22.138Z,9.60
2024-02-19T05:15:50.305Z,9.60
2024-02-19T05:18:18.487Z,9.60
2024-02-19T05:20:48.199Z,9.50
2024-02-19T05:23:17.336Z,9.50
2024-02-19T05:25:45.476Z,9.50
2024-02-19T05:28:13.668Z,9.50
2024-02-19T05:30:41.801Z,9.50
2024-02-19T05:33:09.896Z,9.50
2024-02-19T05:35:38.128Z,9.50
2024-02-19T05:38:07.728Z,9.50
2024-02-19T05:40:35.827Z,9.50
2024-02-19T05:43:03.946Z,9.50
2024-02-19T05:45:32.248Z,9.50
2024-02-19T05:48:00.773Z,9.50
2024-02-19T05:50:31.457Z,9.40
2024-02-19T05:52:59.639Z,9.40
2024-02-19T05:55:29.377Z,9.40
2024-02-19T05:57:57.654Z,9.40
2024-02-19T06:00:25.857Z,9.30
2024-02-19T06:02:54.070Z,9.40
2024-02-19T06:05:22.254Z,9.30
2024-02-19T06:07:50.350Z,9.30
2024-02-19T06:10:18.710Z,9.40
2024-02-19T06:12:48.272Z,9.30
2024-02-19T06:15:16.794Z,9.30
2024-02-19T06:17:44.940Z,9.30
2024-02-19T06:20:13.625Z,9.30
2024-02-19T06:22:41.801Z,9.40
2024-02-19T06:25:11.325Z,9.40
2024-02-19T06:27:39.580Z,9.40
2024-02-19T06:30:10.221Z,9.40
2024-02-19T06:32:38.369Z,9.40
2024-02-19T06:35:07.253Z,9.40
2024-02-19T06:37:35.476Z,9.40
2024-02-19T06:40:03.681Z,9.40
2024-02-19T06:42:31.832Z,9.40
2024-02-19T06:44:59.943Z,9.40
2024-02-19T06:47:29.853Z,9.40
2024-02-19T06:49:57.964Z,9.40
2024-02-19T06:52:26.123Z,9.40
2024-02-19T06:54:54.917Z,9.40
2024-02-19T06:57:23.078Z,9.40
2024-02-19T06:59:51.162Z,9.40
2024-02-19T07:02:19.615Z,9.40
2024-02-19T07:04:49.276Z,9.40
2024-02-19T07:07:17.581Z,9.40
2024-02-19T07:09:45.702Z,9.30
2024-02-19T07:12:13.859Z,9.30
2024-02-19T07:14:41.977Z,9.30
2024-02-19T07:17:11.522Z,9.30
2024-02-19T07:19:39.856Z,9.40
2024-02-19T07:22:09.481Z,9.40
2024-02-19T07:24:39.628Z,9.30
2024-02-19T07:27:07.744Z,9.40
2024-02-19T07:29:35.856Z,9.50
2024-02-19T07:32:04.037Z,9.50
2024-02-19T07:34:32.255Z,9.50
2024-02-19T07:37:00.402Z,9.60
2024-02-19T07:39:29.921Z,9.60
2024-02-19T07:41:58.058Z,9.60
2024-02-19T07:44:26.136Z,9.70
2024-02-19T07:46:54.225Z,9.70
2024-02-19T07:49:22.435Z,9.70
2024-02-19T07:51:50.705Z,9.80
2024-02-19T07:54:18.884Z,9.80
2024-02-19T07:56:48.340Z,10.00
2024-02-19T07:59:16.608Z,10.00
2024-02-19T08:01:44.798Z,10.20
2024-02-19T08:04:13.033Z,10.30
2024-02-19T08:06:41.243Z,10.40
2024-02-19T08:09:09.779Z,10.50
2024-02-19T08:11:38.353Z,10.70
2024-02-19T08:14:07.920Z,10.80
2024-02-19T08:16:36.630Z,10.90
2024-02-19T08:19:05.537Z,11.00
2024-02-19T08:21:33.662Z,11.00
2024-02-19T08:24:01.797Z,11.00
2024-02-19T08:26:29.876Z,11.10
2024-02-19T08:28:57.957Z,11.20
2024-02-19T08:31:28.763Z,11.20
2024-02-19T08:33:57.277Z,11.30
2024-02-19T08:36:25.716Z,11.40
2024-02-19T08:38:54.434Z,11.40
2024-02-19T08:41:22.713Z,11.50
2024-02-19T08:43:50.816Z,11.60
2024-02-19T08:46:18.980Z,11.80
2024-02-19T08:48:49.684Z,11.90
2024-02-19T08:51:18.395Z,12.00
2024-02-19T08:53:51.295Z,12.10
2024-02-19T08:56:22.016Z,12.20
2024-02-19T08:58:50.119Z,12.30
2024-02-19T09:01:20.535Z,12.30
2024-02-19T09:03:50.360Z,12.30
2024-02-19T09:06:18.629Z,12.30
2024-02-19T09:08:46.748Z,12.30
2024-02-19T09:11:14.940Z,12.30
2024-02-19T09:13:46.475Z,12.40
2024-02-19T09:16:16.659Z,12.40
2024-02-19T09:18:45.067Z,12.50
2024-02-19T09:21:14.598Z,12.50
2024-02-19T09:23:42.733Z,12.60
2024-02-19T09:26:14.953Z,12.70
2024-02-19T09:28:45.126Z,12.80
2024-02-19T09:31:13.511Z,12.90
2024-02-19T09:33:41.772Z,13.00
2024-02-19T09:36:13.363Z,13.10
2024-02-19T09:38:43.283Z,13.20
2024-02-19T09:41:11.388Z,13.30
2024-02-19T09:43:39.662Z,13.30
2024-02-19T09:46:15.421Z,13.40
2024-02-19T09:48:48.528Z,13.50
2024-02-19T09:51:29.376Z,13.60
2024-02-19T09:54:04.147Z,13.70
2024-02-19T09:56:32.248Z,13.80
2024-02-19T09:59:00.571Z,13.90
2024-02-19T10:01:28.768Z,14.00
2024-02-19T10:03:58.632Z,14.10
2024-02-19T10:06:35.463Z,14.30
2024-02-19T10:09:08.293Z,14.50
2024-02-19T10:11:36.797Z,14.70
2024-02-19T10:14:05.867Z,14.80
2024-02-19T10:16:34.134Z,14.90
2024-02-19T10:19:06.033Z,15.00
2024-02-19T10:21:34.548Z,15.10
2024-02-19T10:24:04.301Z,15.30
2024-02-19T10:26:32.502Z,15.50
2024-02-19T10:29:01.095Z,15.60
2024-02-19T10:31:30.851Z,15.90
2024-02-19T10:33:59.188Z,16.00
2024-02-19T10:36:27.718Z,16.20
2024-02-19T10:38:55.854Z,16.30
2024-02-19T10:41:25.855Z,16.40
2024-02-19T10:43:54.097Z,16.60
2024-02-19T10:46:22.986Z,16.80
2024-02-19T10:48:52.838Z,17.10
2024-02-19T10:51:21.357Z,17.20
2024-02-19T10:53:58.975Z,17.40
2024-02-19T10:56:36.937Z,17.60
2024-02-19T10:59:05.622Z,17.70
2024-02-19T11:01:44.372Z,17.70
2024-02-19T11:04:14.421Z,17.90
2024-02-19T11:06:46.566Z,18.10
2024-02-19T11:09:15.213Z,18.20
2024-02-19T11:11:49.050Z,18.30
2024-02-19T11:14:22.986Z,18.50
2024-02-19T11:16:52.253Z,18.60
2024-02-19T11:19:20.869Z,18.60
2024-02-19T11:21:49.185Z,18.60
2024-02-19T11:24:17.340Z,18.60
2024-02-19T11:26:47.899Z,18.70
2024-02-19T11:29:16.572Z,18.80
2024-02-19T11:31:45.331Z,18.80
2024-02-19T11:34:19.903Z,18.90
2024-02-19T11:36:48.407Z,18.90
2024-02-19T11:39:16.672Z,19.00
2024-02-19T11:41:45.075Z,19.00
2024-02-19T11:44:16.429Z,19.00
2024-02-19T11:46:44.886Z,19.10
2024-02-19T11:49:13.847Z,19.30
2024-02-19T11:51:42.668Z,19.50
2024-02-19T11:54:12.276Z,19.70
2024-02-19T11:56:45.165Z,19.90
2024-02-19T11:59:16.707Z,20.00
2024-02-19T12:01:46.185Z,20.20
2024-02-19T12:04:16.041Z,20.40
2024-02-19T12:06:45.015Z,20.60
2024-02-19T12:09:14.122Z,21.00
2024-02-19T12:11:42.892Z,21.40
2024-02-19T12:14:15.099Z,22.00
2024-02-19T12:16:43.231Z,22.60
2024-02-19T12:19:11.829Z,23.40
2024-02-19T12:21:43.337Z,24.00
2024-02-19T12:24:13.078Z,24.50
2024-02-19T12:26:41.157Z,24.80
2024-02-19T12:29:09.266Z,25.20
2024-02-19T12:31:38.772Z,25.40
2024-02-19T12:34:07.653Z,25.50
2024-02-19T12:36:36.751Z,25.20
2024-02-19T12:39:10.621Z,25.00
2024-02-19T12:41:39.510Z,25.10
2024-02-19T12:44:07.954Z,25.50
2024-02-19T12:46:36.104Z,26.00
2024-02-19T12:49:08.295Z,26.60
2024-02-19T12:51:37.081Z,27.00
2024-02-19T12:54:06.074Z,27.30
2024-02-19T12:56:34.170Z,27.50
2024-02-19T12:59:02.272Z,27.60
2024-02-19T13:01:33.743Z,27.50
2024-02-19T13:04:03.149Z,27.60
2024-02-19T13:06:33.242Z,27.80
2024-02-19T13:09:01.857Z,28.10
2024-02-19T13:11:30.083Z,28.20
2024-02-19T13:13:59.049Z,28.40
2024-02-19T13:16:28.885Z,28.50
2024-02-19T13:18:57.461Z,28.50
2024-02-19T13:21:25.661Z,28.50
2024-02-19T13:23:55.127Z,28.50
2024-02-19T13:26:23.306Z,28.60
2024-02-19T13:28:51.379Z,28.60
2024-02-19T13:31:19.636Z,28.60
2024-02-19T13:33:48.233Z,28.40
2024-02-19T13:36:17.474Z,28.20
2024-02-19T13:38:48.644Z,27.90
2024-02-19T13:41:18.342Z,27.50
2024-02-19T13:43:47.059Z,27.20
2024-02-19T13:46:17.698Z,26.80
2024-02-19T13:48:47.781Z,26.50
2024-02-19T13:51:17.048Z,26.20
2024-02-19T13:53:45.130Z,25.90
2024-02-19T13:56:13.215Z,25.60
2024-02-19T13:58:43.299Z,25.20
2024-02-19T14:01:11.858Z,24.90
2024-02-19T14:03:40.296Z,24.50
2024-02-19T14:06:08.673Z,24.10
2024-02-19T14:08:36.926Z,23.90
2024-02-19T14:11:05.314Z,23.60
2024-02-19T14:13:45.716Z,23.40
2024-02-19T14:16:21.183Z,23.20
2024-02-19T14:18:49.480Z,22.90
2024-02-19T14:21:17.622Z,22.70
2024-02-19T14:23:45.739Z,22.50
2024-02-19T14:26:13.837Z,22.40
2024-02-19T14:28:41.988Z,22.30
2024-02-19T14:31:10.292Z,22.20
2024-02-19T14:33:39.847Z,22.10
2024-02-19T14:36:08.510Z,22.00
2024-02-19T14:38:36.783Z,21.80
2024-02-19T14:41:05.597Z,21.70
2024-02-19T14:43:33.843Z,21.60
2024-02-19T14:46:05.003Z,21.40
2024-02-19T14:48:35.828Z,21.30
2024-02-19T14:51:06.907Z,21.10
2024-02-19T14:53:35.219Z,21.00
2024-02-19T14:56:03.882Z,20.80
2024-02-19T14:58:32.168Z,20.80
2024-02-19T15:01:00.424Z,20.90
2024-02-19T15:03:28.652Z,21.00
2024-02-19T15:05:56.808Z,21.10
2024-02-19T15:08:26.317Z,21.00
2024-02-19T15:10:54.504Z,20.90
2024-02-19T15:13:23.697Z,20.80
2024-02-19T15:15:52.192Z,20.80
2024-02-19T15:18:20.552Z,20.90
2024-02-19T15:20:49.560Z,21.20
2024-02-19T15:23:17.742Z,21.30
2024-02-19T15:25:47.282Z,21.50
2024-02-19T15:28:15.502Z,21.60
2024-02-19T15:30:43.973Z,21.80
2024-02-19T15:33:12.842Z,22.10
2024-02-19T15:35:41.008Z,22.20
2024-02-19T15:38:10.259Z,22.40
2024-02-19T15:40:40.249Z,22.40
2024-02-19T15:43:09.987Z,22.20
2024-02-19T15:45:39.348Z,21.90
2024-02-19T15:48:08.333Z,21.50
2024-02-19T15:50:36.514Z,21.10
2024-02-19T15:53:06.281Z,20.70
2024-02-19T15:55:35.361Z,20.30
2024-02-19T15:58:03.596Z,20.00
2024-02-19T16:00:36.827Z,19.70
2024-02-19T16:03:05.378Z,19.40
2024-02-19T16:05:34.586Z,19.10
2024-02-19T16:08:02.799Z,18.90
2024-02-19T16:10:32.150Z,18.70
2024-02-19T16:13:00.328Z,18.40
2024-02-19T16:15:28.438Z,18.20
2024-02-19T16:17:57.954Z,18.00
2024-02-19T16:20:26.141Z,17.90
2024-02-19T16:22:55.949Z,17.70
2024-02-19T16:25:24.188Z,17.50
2024-02-19T16:27:53.101Z,17.30
2024-02-19T16:30:21.221Z,17.20
2024-02-19T16:32:49.322Z,17.00
2024-02-19T16:35:18.992Z,16.90
2024-02-19T16:37:47.189Z,16.70
2024-02-19T16:40:15.504Z,16.60
2024-02-19T16:42:43.620Z,16.40
2024-02-19T16:45:11.905Z,16.30
2024-02-19T16:47:40.183Z,16.20
2024-02-19T16:50:08.917Z,16.00
2024-02-19T16:52:38.483Z,15.90
2024-02-19T16:55:08.780Z,15.70
2024-02-19T16:57:37.264Z,15.60
2024-02-19T17:00:06.962Z,15.50
2024-02-19T17:02:35.296Z,15.40
2024-02-19T17:05:04.263Z,15.30
2024-02-19T17:07:32.932Z,15.20
2024-02-19T17:10:05.117Z,15.10
2024-02-19T17:12:33.792Z,15.00
2024-02-19T17:15:02.049Z,15.00
2024-02-19T17:17:30.198Z,14.90
2024-02-19T17:19:58.367Z,14.80
2024-02-19T17:22:27.346Z,14.70
2024-02-19T17:24:55.598Z,14.60
2024-02-19T17:27:25.084Z,14.60
2024-02-19T17:29:53.224Z,14.50
2024-02-19T17:32:21.801Z,14.40
2024-02-19T17:34:52.419Z,14.40
2024-02-19T17:37:21.675Z,14.20
2024-02-19T17:39:50.578Z,14.20
2024-02-19T17:42:20.579Z,14.10
2024-02-19T17:44:50.041Z,14.00
2024-02-19T17:47:18.157Z,13.80
2024-02-19T17:49:46.406Z,13.80
2024-02-19T17:52:14.653Z,13.70
2024-02-19T17:54:42.777Z,13.60
2024-02-19T17:57:15.758Z,13.60
2024-02-19T17:59:44.043Z,13.50
2024-02-19T18:02:14.311Z,13.50
2024-02-19T18:04:47.452Z,13.40
2024-02-19T18:07:15.686Z,13.40
2024-02-19T18:09:43.825Z,13.40
2024-02-19T18:12:12.017Z,13.30
2024-02-19T18:14:40.075Z,13.30
2024-02-19T18:17:08.575Z,13.30
2024-02-19T18:19:38.087Z,13.20
2024-02-19T18:22:08.100Z,13.20
2024-02-19T18:24:36.246Z,13.20
2024-02-19T18:27:05.051Z,13.20
2024-02-19T18:29:34.140Z,13.10
2024-02-19T18:32:03.139Z,13.10
2024-02-19T18:34:32.240Z,13.10
2024-02-19T18:37:01.922Z,13.00
2024-02-19T18:39:33.035Z,13.00
2024-02-19T18:42:01.546Z,12.90
2024-02-19T18:44:30.066Z,12.90
2024-02-19T18:47:01.374Z,12.80
2024-02-19T18:49:32.823Z,12.80
2024-02-19T18:52:03.098Z,12.80
2024-02-19T18:54:32.261Z,12.70
2024-02-19T18:57:02.236Z,12.70
2024-02-19T18:59:31.730Z,12.60
2024-02-19T19:02:02.093Z,12.60
2024-02-19T19:04:30.517Z,12.60
2024-02-19T19:06:58.857Z,12.50
2024-02-19T19:09:28.360Z,12.50
2024-02-19T19:11:57.549Z,12.50
2024-02-19T19:14:25.633Z,12.40
2024-02-19T19:16:53.829Z,12.40
2024-02-19T19:19:22.260Z,12.40
2024-02-19T19:21:50.527Z,12.30
2024-02-19T19:24:18.655Z,12.30
2024-02-19T19:26:48.175Z,12.20
2024-02-19T19:29:16.272Z,12.20
2024-02-19T19:31:44.407Z,12.10
2024-02-19T19:34:12.995Z,12.10
2024-02-19T19:36:41.110Z,12.10
2024-02-19T19:39:09.742Z,12.00
2024-02-19T19:41:37.890Z,12.00
2024-02-19T19:44:07.465Z,12.00
2024-02-19T19:46:35.935Z,11.90
2024-02-19T19:49:05.847Z,11.90
2024-02-19T19:51:34.156Z,11.80
2024-02-19T19:54:02.275Z,11.80
2024-02-19T19:56:30.565Z,11.70
2024-02-19T19:58:59.579Z,11.70
2024-02-19T20:01:29.286Z,11.70
2024-02-19T20:03:57.438Z,11.70
2024-02-19T20:06:25.784Z,11.60
2024-02-19T20:08:54.656Z,11.60
2024-02-19T20:11:23.679Z,11.50
2024-02-19T20:13:52.080Z,11.50
2024-02-19T20:16:21.104Z,11.50
2024-02-19T20:18:50.750Z,11.40
2024-02-19T20:21:19.091Z,11.40
2024-02-19T20:23:47.175Z,11.30
2024-02-19T20:26:15.336Z,11.30
2024-02-19T20:28:43.431Z,11.30
2024-02-19T20:31:11.551Z,11.20
2024-02-19T20:33:39.937Z,11.20
2024-02-19T20:36:09.728Z,11.20
2024-02-19T20:38:38.457Z,11.10
2024-02-19T20:41:06.820Z,11.10
2024-02-19T20:43:36.428Z,11.00
2024-02-19T20:46:04.782Z,11.10
2024-02-19T20:48:33.149Z,11.10
2024-02-19T20:51:01.242Z,11.00
2024-02-19T20:53:30.729Z,11.00
2024-02-19T20:55:58.847Z,11.00
2024-02-19T20:58:27.499Z,11.00
2024-02-19T21:00:55.710Z,11.00
2024-02-19T21:03:32.203Z,10.90
2024-02-19T21:06:04.458Z,11.00
2024-02-19T21:08:34.021Z,10.90
2024-02-19T21:11:04.170Z,10.90
2024-02-19T21:13:32.354Z,10.90
2024-02-19T21:16:00.564Z,10.90
2024-02-19T21:18:34.664Z,10.90
2024-02-19T21:21:15.310Z,10.80
2024-02-19T21:23:47.589Z,10.80
2024-02-19T21:26:15.757Z,10.80
2024-02-19T21:28:44.220Z,10.70
2024-02-19T21:31:16.788Z,10.70
2024-02-19T21:33:45.095Z,10.70
2024-02-19T21:36:13.360Z,10.60
2024-02-19T21:38:41.689Z,10.60
2024-02-19T21:41:11.364Z,10.50
2024-02-19T21:43:39.800Z,10.50
2024-02-19T21:46:08.091Z,10.50
2024-02-19T21:48:36.367Z,10.50
2024-02-19T21:51:05.841Z,10.50
2024-02-19T21:53:34.077Z,10.40
2024-02-19T21:56:04.468Z,10.50
2024-02-19T21:58:34.128Z,10.40
2024-02-19T22:01:02.424Z,10.40
2024-02-19T22:03:31.975Z,10.40
2024-02-19T22:06:00.231Z,10.40
2024-02-19T22:08:28.377Z,10.40
2024-02-19T22:10:56.540Z,10.30
2024-02-19T22:13:24.894Z,10.30
2024-02-19T22:15:55.378Z,10.30
2024-02-19T22:18:25.209Z,10.30
2024-02-19T22:20:53.651Z,10.30
2024-02-19T22:23:21.791Z,10.20
2024-02-19T22:25:50.233Z,10.10
2024-02-19T22:28:18.777Z,10.10
2024-02-19T22:30:47.202Z,10.10
2024-02-19T22:33:16.737Z,10.10
2024-02-19T22:35:45.008Z,10.10
2024-02-19T22:38:13.128Z,10.10
2024-02-19T22:40:42.901Z,10.20
2024-02-19T22:43:12.272Z,10.10
2024-02-19T22:45:41.354Z,10.10
2024-02-19T22:48:10.935Z,10.10
2024-02-19T22:50:41.628Z,10.10
2024-02-19T22:53:10.004Z,10.10
2024-02-19T22:55:38.271Z,10.00
2024-02-19T22:58:06.646Z,10.00
2024-02-19T23:00:37.209Z,10.00
2024-02-19T23:03:07.105Z,10.00
2024-02-19T23:05:35.716Z,9.90
2024-02-19T23:08:06.403Z,9.90
2024-02-19T23:10:34.650Z,9.90
2024-02-19T23:13:03.097Z,9.90
2024-02-19T23:15:31.212Z,9.90
2024-02-19T23:18:01.158Z,9.90
2024-02-19T23:20:29.334Z,9.90
2024-02-19T23:22:57.585Z,9.80
2024-02-19T23:25:27.153Z,9.80
2024-02-19T23:27:55.487Z,9.80
2024-02-19T23:30:23.717Z,9.80
2024-02-19T23:32:51.855Z,9.80
2024-02-19T23:35:20.231Z,9.80
2024-02-19T23:37:48.808Z,9.80
2024-02-19T23:40:18.529Z,9.80
2024-02-19T23:42:48.687Z,9.80
2024-02-19T23:45:16.910Z,9.80
2024-02-19T23:47:45.541Z,9.80
2024-02-19T23:50:13.865Z,9.80
2024-02-19T23:52:42.351Z,9.80
2024-02-19T23:55:13.566Z,9.70
2024-02-19T23:57:41.880Z,9.70
